Thunder radar more information blitzortung!


Radar de pluja more information rain snow radar


Visita la nostra xarxa de llocs de meteo:

Template documentation
and downloads

And another site



No particular awareness of the weather is required.    There are no Weather-warnings

Pagina Historial Weather Underground text

Diari Resum Abril 1, 2016 Unitats:  Mètric    Imperial   Tant
« Previous Dia
SegĂźent Dia »
Diari Setmana Mensual Anual Personalitzada
  Maxima: Minima: Media:
Temperatura: 15.5 °C 6.8 °C 10.2 °C
Punt de rosada: 8.5 °C -1.0 °C 5.8 °C
Humitat: 82 % 43 % 74 %
Wind Speed: 20.1 km/h 0.0 km/h 3.8 km/h
RĂ fegues de vent: 20.1 km/h - -
Vent:- - South
Pression baro: 1016.8 hPa 1011.7 hPa -
Precipitacions: 17.0 mm    
Historical Graphs
 
 
Dades de taula per Abril 1, 2016
Temps Temperatura Punt de rosada Pression baro Vent Wind Speed RĂ fegues de vent Humitat Rainfall Rate (Hourly)
00:00 9.2 °C -0.4 °C 1012.8 hPa NNE 3.2 km/h 4.8 km/h 51 % 0.0 mm
00:02 11.1 °C -1.0 °C 1011.7 hPa WNW 4.2 km/h 4.2 km/h 43 % 0.0 mm
00:07 11.1 °C -1.0 °C 1011.7 hPa West 5.8 km/h 5.8 km/h 43 % 0.0 mm
00:10 8.9 °C -0.4 °C 1013.8 hPa NNE 1.6 km/h 4.8 km/h 52 % 0.0 mm
00:20 8.3 °C 0.0 °C 1013.8 hPa East 3.2 km/h 11.3 km/h 56 % 0.0 mm
00:30 7.7 °C 0.2 °C 1014.8 hPa NNE 4.8 km/h 8.0 km/h 59 % 0.0 mm
00:50 7.3 °C 0.3 °C 1013.8 hPa North 3.2 km/h 8.0 km/h 61 % 0.0 mm
01:00 7.2 °C 0.6 °C 1013.8 hPa WNW 3.2 km/h 6.4 km/h 63 % 0.0 mm
01:10 7.1 °C 1.2 °C 1013.8 hPa Calm   3.2 km/h 66 % 0.0 mm
01:20 7.1 °C 1.4 °C 1013.8 hPa Calm   4.8 km/h 67 % 0.0 mm
01:30 7.0 °C 1.7 °C 1013.8 hPa Calm   1.6 km/h 69 % 0.0 mm
01:40 7.1 °C 1.6 °C 1013.8 hPa WSW 1.6 km/h 3.2 km/h 68 % 0.0 mm
01:50 7.0 °C 1.7 °C 1013.8 hPa Calm   3.2 km/h 69 % 0.0 mm
02:00 7.0 °C 1.7 °C 1013.8 hPa West 1.6 km/h 3.2 km/h 69 % 0.0 mm
02:10 7.0 °C 1.9 °C 1013.8 hPa West 1.6 km/h 6.4 km/h 70 % 0.0 mm
02:20 6.9 °C 2.4 °C 1013.8 hPa WSW 1.6 km/h 3.2 km/h 73 % 0.0 mm
02:30 7.0 °C 2.7 °C 1013.8 hPa WSW 1.6 km/h 1.6 km/h 74 % 0.0 mm
02:40 7.0 °C 2.5 °C 1013.8 hPa West 1.6 km/h 4.8 km/h 73 % 0.0 mm
02:50 7.1 °C 2.8 °C 1013.8 hPa Calm   6.4 km/h 74 % 0.0 mm
03:00 7.0 °C 2.9 °C 1013.8 hPa SW 3.2 km/h 4.8 km/h 75 % 0.0 mm
03:10 6.8 °C 3.1 °C 1013.8 hPa SSW 1.6 km/h 6.4 km/h 77 % 0.0 mm
03:40 6.8 °C 2.9 °C 1014.8 hPa WSW 1.6 km/h 3.2 km/h 76 % 0.0 mm
03:50 6.9 °C 3.2 °C 1014.8 hPa Calm   3.2 km/h 77 % 0.0 mm
04:00 7.1 °C 3.7 °C 1013.8 hPa North 3.2 km/h 4.8 km/h 79 % 0.0 mm
04:10 7.2 °C 3.4 °C 1014.8 hPa Calm   3.2 km/h 77 % 0.0 mm
04:20 6.9 °C 3.3 °C 1014.8 hPa WSW 1.6 km/h 6.4 km/h 78 % 0.0 mm
04:30 7.2 °C 4.0 °C 1014.8 hPa WNW 3.2 km/h 4.8 km/h 80 % 0.0 mm
04:40 7.5 °C 4.3 °C 1013.8 hPa NNE 3.2 km/h 4.8 km/h 80 % 0.0 mm
09:43 7.6 °C 4.2 °C 1013.8 hPa NNE 5.6 km/h 5.6 km/h 79 % 0.0 mm
09:48 7.6 °C 4.2 °C 1013.8 hPa NE 7.4 km/h 7.4 km/h 79 % 0.0 mm
09:53 7.8 °C 4.4 °C 1014.8 hPa North 9.3 km/h 9.3 km/h 79 % 0.0 mm
09:58 7.9 °C 4.5 °C 1014.8 hPa NNE 5.6 km/h 5.6 km/h 79 % 0.0 mm
10:03 7.9 °C 4.5 °C 1014.8 hPa NE 4.7 km/h 4.7 km/h 79 % 0.0 mm
10:08 8.0 °C 4.4 °C 1014.8 hPa West 3.7 km/h 3.7 km/h 78 % 0.0 mm
10:13 8.0 °C 4.2 °C 1014.8 hPa WSW 5.6 km/h 5.6 km/h 77 % 0.0 mm
10:18 8.0 °C 4.4 °C 1014.8 hPa Calm     78 % 0.0 mm
10:23 8.0 °C 4.4 °C 1014.8 hPa SW 3.9 km/h 3.9 km/h 78 % 0.0 mm
10:28 8.0 °C 4.6 °C 1014.8 hPa SW 2.3 km/h 3.2 km/h 79 % 0.0 mm
10:33 8.0 °C 4.6 °C 1014.8 hPa SW 3.7 km/h 3.9 km/h 79 % 0.0 mm
10:38 8.0 °C 4.6 °C 1015.8 hPa WSW 5.0 km/h 5.0 km/h 79 % 0.0 mm
10:43 8.0 °C 4.8 °C 1015.8 hPa West 3.7 km/h 3.7 km/h 80 % 0.0 mm
10:48 7.9 °C 4.5 °C 1015.8 hPa West 3.7 km/h 3.7 km/h 79 % 0.0 mm
10:53 8.0 °C 4.8 °C 1015.8 hPa West 3.7 km/h 3.7 km/h 80 % 0.0 mm
10:58 8.0 °C 4.8 °C 1015.8 hPa West 3.7 km/h 3.7 km/h 80 % 0.0 mm
11:03 8.2 °C 5.1 °C 1015.8 hPa West 3.7 km/h 3.7 km/h 81 % 0.0 mm
11:08 8.2 °C 5.3 °C 1015.8 hPa Calm     82 % 0.0 mm
11:13 8.4 °C 5.5 °C 1015.8 hPa ENE 2.3 km/h 2.3 km/h 82 % 0.0 mm
11:18 8.4 °C 5.5 °C 1015.8 hPa NE 3.7 km/h 3.7 km/h 82 % 0.0 mm
11:23 8.5 °C 5.6 °C 1015.8 hPa NE 3.7 km/h 3.7 km/h 82 % 0.0 mm
11:28 8.5 °C 5.4 °C 1015.8 hPa NNE 3.7 km/h 3.7 km/h 81 % 0.0 mm
11:33 8.5 °C 5.4 °C 1015.8 hPa NNE 3.7 km/h 3.7 km/h 81 % 0.0 mm
11:38 8.6 °C 5.5 °C 1015.8 hPa ENE 3.7 km/h 3.7 km/h 81 % 0.0 mm
11:43 8.7 °C 5.4 °C 1015.8 hPa WNW 5.6 km/h 5.6 km/h 80 % 0.0 mm
11:48 8.7 °C 5.4 °C 1015.8 hPa ENE 3.7 km/h 3.7 km/h 80 % 0.0 mm
11:53 8.7 °C 5.3 °C 1016.8 hPa WNW 5.0 km/h 5.0 km/h 79 % 0.0 mm
11:58 8.9 °C 5.4 °C 1016.8 hPa SW 3.7 km/h 3.7 km/h 79 % 0.0 mm
12:03 9.0 °C 5.7 °C 1016.8 hPa West 3.9 km/h 3.9 km/h 80 % 0.0 mm
12:08 9.1 °C 5.8 °C 1015.8 hPa SW 1.9 km/h   80 % 0.0 mm
12:13 9.2 °C 5.7 °C 1015.8 hPa WSW 5.6 km/h 5.6 km/h 79 % 0.0 mm
12:18 9.2 °C 5.9 °C 1015.8 hPa SW 5.0 km/h 5.0 km/h 80 % 0.0 mm
12:23 9.2 °C 6.1 °C 1015.8 hPa SW 3.7 km/h   81 % 0.0 mm
12:28 9.3 °C 6.2 °C 1015.8 hPa SW 3.7 km/h   81 % 0.0 mm
12:33 9.2 °C 6.1 °C 1015.8 hPa SSW 1.9 km/h 1.9 km/h 81 % 0.0 mm
12:38 9.4 °C 6.5 °C 1015.8 hPa SSW 1.9 km/h   82 % 0.0 mm
12:43 9.6 °C 6.5 °C 1015.8 hPa WSW 3.7 km/h 3.7 km/h 81 % 0.0 mm
12:48 9.7 °C 6.8 °C 1015.8 hPa SW 1.9 km/h   82 % 0.0 mm
12:53 9.9 °C 6.9 °C 1015.8 hPa SW 2.6 km/h   82 % 0.0 mm
12:58 10.0 °C 7.1 °C 1015.8 hPa WSW 3.7 km/h 3.7 km/h 82 % 0.0 mm
13:03 10.1 °C 7.0 °C 1015.8 hPa South 3.7 km/h 3.7 km/h 81 % 0.0 mm
13:08 10.3 °C 7.3 °C 1014.8 hPa SW 1.9 km/h   82 % 0.0 mm
13:13 10.2 °C 7.1 °C 1014.8 hPa SW 5.6 km/h 5.6 km/h 81 % 0.0 mm
13:18 10.4 °C 7.4 °C 1014.8 hPa WSW 2.3 km/h   82 % 0.0 mm
13:23 10.3 °C 7.2 °C 1014.8 hPa SSE 3.5 km/h   81 % 0.0 mm
13:28 10.5 °C 7.4 °C 1014.8 hPa Calm     81 % 0.0 mm
13:33 10.7 °C 7.6 °C 1014.8 hPa ESE 3.2 km/h 3.2 km/h 81 % 0.0 mm
13:38 10.7 °C 7.4 °C 1015.8 hPa ESE 1.9 km/h   80 % 0.0 mm
13:43 10.7 °C 7.2 °C 1015.8 hPa West 3.7 km/h 3.7 km/h 79 % 0.0 mm
13:48 10.6 °C 7.1 °C 1015.8 hPa WSW 3.9 km/h 3.9 km/h 79 % 0.0 mm
13:53 10.7 °C 7.2 °C 1014.8 hPa SW 3.7 km/h   79 % 0.0 mm
13:58 11.0 °C 7.5 °C 1014.8 hPa SE 1.4 km/h   79 % 0.0 mm
14:03 11.0 °C 7.5 °C 1014.8 hPa ESE 5.6 km/h 5.6 km/h 79 % 0.0 mm
14:08 11.2 °C 7.5 °C 1014.8 hPa NE 4.7 km/h 4.7 km/h 78 % 0.0 mm
14:13 11.2 °C 7.3 °C 1014.8 hPa ENE 1.9 km/h 1.9 km/h 77 % 0.0 mm
14:18 11.5 °C 7.4 °C 1014.8 hPa ENE 2.3 km/h   76 % 0.0 mm
14:23 11.8 °C 7.7 °C 1014.8 hPa ESE 7.4 km/h 7.4 km/h 76 % 0.0 mm
14:28 11.6 °C 7.3 °C 1014.8 hPa ESE 7.4 km/h 7.4 km/h 75 % 0.0 mm
14:33 11.7 °C 7.2 °C 1014.8 hPa NE 3.7 km/h 3.7 km/h 74 % 0.0 mm
14:38 11.8 °C 7.3 °C 1014.8 hPa South 5.6 km/h 5.6 km/h 74 % 0.0 mm
14:43 12.4 °C 7.9 °C 1014.8 hPa SSE 4.7 km/h 4.7 km/h 74 % 0.0 mm
14:48 12.5 °C 7.8 °C 1014.8 hPa SSW 5.6 km/h 5.6 km/h 73 % 0.0 mm
14:53 12.7 °C 8.2 °C 1014.8 hPa SW 9.3 km/h 9.3 km/h 74 % 0.0 mm
14:58 12.6 °C 8.3 °C 1014.8 hPa SW 5.6 km/h 5.6 km/h 75 % 0.0 mm
15:03 12.1 °C 7.8 °C 1014.8 hPa WSW 20.1 km/h 20.1 km/h 75 % 0.0 mm
15:08 11.8 °C 7.7 °C 1013.8 hPa SW 9.3 km/h 9.3 km/h 76 % 0.0 mm
15:13 11.7 °C 7.2 °C 1013.8 hPa WSW 7.4 km/h 7.4 km/h 74 % 0.0 mm
15:18 12.1 °C 7.4 °C 1013.8 hPa NE 5.6 km/h 5.6 km/h 73 % 0.0 mm
15:23 12.3 °C 7.4 °C 1013.8 hPa SW 5.6 km/h 5.6 km/h 72 % 0.0 mm
15:28 12.8 °C 7.7 °C 1013.8 hPa NNW 3.7 km/h 3.7 km/h 71 % 0.0 mm
15:38 13.0 °C 7.0 °C 1013.8 hPa WSW 7.4 km/h 7.4 km/h 67 % 0.0 mm
15:43 13.2 °C 7.0 °C 1013.8 hPa West 3.7 km/h 3.7 km/h 66 % 0.0 mm
15:48 13.4 °C 7.2 °C 1013.8 hPa WSW 5.6 km/h 5.6 km/h 66 % 0.0 mm
15:53 13.5 °C 6.8 °C 1013.8 hPa SW 11.1 km/h 11.1 km/h 64 % 0.0 mm
16:03 14.6 °C 7.9 °C 1013.8 hPa North 5.6 km/h 5.6 km/h 64 % 0.0 mm
16:08 14.8 °C 8.1 °C 1013.8 hPa WSW 10.3 km/h 10.3 km/h 64 % 0.0 mm
16:13 15.2 °C 8.2 °C 1013.8 hPa SW 5.6 km/h 5.6 km/h 63 % 0.0 mm
16:18 15.5 °C 8.5 °C 1013.8 hPa SW 4.2 km/h 4.2 km/h 63 % 0.0 mm
16:23 15.4 °C 8.2 °C 1012.8 hPa SW 7.4 km/h 7.4 km/h 62 % 0.0 mm
16:28 15.0 °C 7.8 °C 1012.8 hPa ESE 9.3 km/h 9.3 km/h 62 % 0.0 mm
16:33 14.6 °C 7.4 °C 1012.8 hPa ESE 9.3 km/h 9.3 km/h 62 % 0.0 mm
16:43 14.0 °C 7.1 °C 1013.8 hPa ENE 11.1 km/h 11.1 km/h 63 % 0.0 mm
16:48 13.8 °C 6.9 °C 1013.8 hPa ESE 11.1 km/h 11.1 km/h 63 % 0.0 mm
16:53 13.3 °C 6.8 °C 1013.8 hPa ESE 9.3 km/h 9.3 km/h 65 % 0.0 mm
16:58 13.1 °C 6.9 °C 1013.8 hPa ESE 9.3 km/h 9.3 km/h 66 % 0.0 mm
17:03 13.0 °C 7.0 °C 1013.8 hPa East 14.8 km/h 14.8 km/h 67 % 0.0 mm
17:08 12.8 °C 6.8 °C 1013.8 hPa ESE 11.1 km/h 11.1 km/h 67 % 0.0 mm
17:13 12.8 °C 6.8 °C 1013.8 hPa ESE 9.3 km/h 9.3 km/h 67 % 0.0 mm
17:18 12.8 °C 6.8 °C 1013.8 hPa ENE 5.6 km/h 5.6 km/h 67 % 0.0 mm
17:23 12.8 °C 6.8 °C 1013.8 hPa ENE 7.4 km/h 7.4 km/h 67 % 0.0 mm
17:33 12.7 °C 6.7 °C 1013.8 hPa ESE 9.3 km/h 9.3 km/h 67 % 0.0 mm
17:38 12.7 °C 6.7 °C 1013.8 hPa ESE 13.0 km/h 13.0 km/h 67 % 0.0 mm
17:43 12.7 °C 6.7 °C 1013.8 hPa East 9.7 km/h 9.7 km/h 67 % 0.0 mm
17:48 12.5 °C 6.8 °C 1013.8 hPa East 9.3 km/h 9.3 km/h 68 % 0.0 mm
17:53 12.4 °C 6.9 °C 1013.8 hPa NNE 11.1 km/h 11.1 km/h 69 % 0.0 mm
17:58 12.3 °C 6.8 °C 1013.8 hPa ESE 12.6 km/h 12.6 km/h 69 % 17.0 mm
18:03 12.2 °C 6.7 °C 1013.8 hPa East 9.3 km/h 9.3 km/h 69 % 17.0 mm
18:08 12.2 °C 6.7 °C 1013.8 hPa East 9.3 km/h 9.3 km/h 69 % 17.0 mm
18:13 12.1 °C 6.6 °C 1013.8 hPa ESE 7.4 km/h 7.4 km/h 69 % 17.0 mm
18:18 12.1 °C 6.6 °C 1013.8 hPa ENE 3.7 km/h   69 % 17.0 mm
18:23 12.2 °C 6.9 °C 1013.8 hPa South 3.7 km/h 3.7 km/h 70 % 17.0 mm
18:33 12.2 °C 6.7 °C 1013.8 hPa WSW 3.7 km/h 3.7 km/h 69 % 17.0 mm
18:38 12.1 °C 6.6 °C 1013.8 hPa SW 9.3 km/h 9.3 km/h 69 % 17.0 mm
18:43 12.1 °C 6.6 °C 1013.8 hPa WSW 6.1 km/h 6.1 km/h 69 % 17.0 mm
18:53 12.1 °C 6.6 °C 1013.8 hPa West 5.6 km/h 5.6 km/h 69 % 17.0 mm
18:58 12.1 °C 6.6 °C 1013.8 hPa WSW 5.8 km/h 5.8 km/h 69 % 0.0 mm
19:03 12.0 °C 6.5 °C 1013.8 hPa WSW 3.7 km/h 3.7 km/h 69 % 0.0 mm
19:08 12.0 °C 6.5 °C 1013.8 hPa SW 5.6 km/h 5.6 km/h 69 % 0.0 mm
19:10 10.2 °C 6.6 °C 1013.8 hPa Calm     78 % 0.0 mm
19:13 11.9 °C 6.4 °C 1013.8 hPa WSW 3.7 km/h 3.7 km/h 69 % 0.0 mm
19:18 12.0 °C 6.5 °C 1013.8 hPa SSW 5.0 km/h 5.0 km/h 69 % 0.0 mm
19:20 10.1 °C 6.4 °C 1013.8 hPa Calm     78 % 0.0 mm
19:23 11.8 °C 6.5 °C 1013.8 hPa West 5.6 km/h 5.6 km/h 70 % 0.0 mm
19:28 11.8 °C 6.5 °C 1013.8 hPa SW 6.4 km/h 6.4 km/h 70 % 0.0 mm
19:33 11.7 °C 6.8 °C 1013.8 hPa West 5.6 km/h 5.6 km/h 72 % 0.0 mm
19:38 11.7 °C 6.8 °C 1012.8 hPa WSW 5.8 km/h 5.8 km/h 72 % 0.0 mm
19:40 10.1 °C 6.4 °C 1013.8 hPa Calm   1.6 km/h 78 % 0.0 mm
19:43 11.6 °C 6.9 °C 1012.8 hPa SW 5.6 km/h 5.6 km/h 73 % 0.0 mm
19:48 11.5 °C 6.8 °C 1012.8 hPa WSW 6.9 km/h 6.9 km/h 73 % 0.0 mm
19:50 10.1 °C 6.4 °C 1013.8 hPa Calm   3.2 km/h 78 % 0.0 mm
19:53 11.5 °C 6.8 °C 1013.8 hPa West 3.7 km/h 3.7 km/h 73 % 0.0 mm
19:58 11.4 °C 6.7 °C 1013.8 hPa WSW 4.2 km/h 4.2 km/h 73 % 0.0 mm
20:00 10.1 °C 6.4 °C 1013.8 hPa NNE 1.6 km/h 3.2 km/h 78 % 0.0 mm
20:03 11.3 °C 6.6 °C 1013.8 hPa SW 3.9 km/h 3.9 km/h 73 % 0.0 mm
20:08 11.2 °C 6.6 °C 1013.8 hPa SW 3.2 km/h 3.2 km/h 73 % 0.0 mm
20:10 9.8 °C 6.2 °C 1013.8 hPa WSW 1.6 km/h 3.2 km/h 78 % 0.0 mm
20:13 11.1 °C 6.4 °C 1013.8 hPa WSW 3.2 km/h 3.2 km/h 73 % 0.0 mm
20:18 11.0 °C 6.3 °C 1013.8 hPa SW 3.7 km/h 3.7 km/h 73 % 0.0 mm
20:20 9.8 °C 6.3 °C 1013.8 hPa Calm   1.6 km/h 79 % 0.0 mm
20:23 10.9 °C 6.4 °C 1013.8 hPa SW 2.3 km/h 2.3 km/h 74 % 0.0 mm
20:28 10.8 °C 6.3 °C 1013.8 hPa SW 3.7 km/h 3.7 km/h 74 % 0.0 mm
20:30 9.7 °C 6.2 °C 1013.8 hPa Calm   1.6 km/h 79 % 0.0 mm
20:33 10.8 °C 6.3 °C 1013.8 hPa WSW 3.7 km/h 3.7 km/h 74 % 0.0 mm
20:38 10.7 °C 6.3 °C 1013.8 hPa WSW 3.7 km/h 3.7 km/h 74 % 0.0 mm
20:43 10.7 °C 6.4 °C 1013.8 hPa Calm     75 % 0.0 mm
20:48 10.6 °C 6.3 °C 1013.8 hPa Calm     75 % 0.0 mm
20:50 9.6 °C 6.1 °C 1013.8 hPa SW 1.6 km/h 3.2 km/h 79 % 0.0 mm
20:53 10.6 °C 6.3 °C 1013.8 hPa Calm     75 % 0.0 mm
21:00 9.4 °C 5.9 °C 1012.8 hPa SW 3.2 km/h 3.2 km/h 79 % 0.0 mm
21:03 10.6 °C 6.2 °C 1013.8 hPa WSW 3.7 km/h 3.7 km/h 74 % 0.0 mm
21:08 10.6 °C 6.2 °C 1013.8 hPa WSW 3.7 km/h 3.7 km/h 74 % 0.0 mm
21:10 9.4 °C 5.9 °C 1013.8 hPa SW 3.2 km/h 3.2 km/h 79 % 0.0 mm
21:13 10.5 °C 6.3 °C 1013.8 hPa SW 3.7 km/h 3.7 km/h 75 % 0.0 mm
21:18 10.5 °C 6.3 °C 1013.8 hPa Calm     75 % 0.0 mm
21:20 9.4 °C 6.1 °C 1013.8 hPa Calm   3.2 km/h 80 % 0.0 mm
21:23 10.4 °C 6.3 °C 1013.8 hPa Calm     76 % 0.0 mm
21:28 10.4 °C 6.3 °C 1013.8 hPa Calm     76 % 0.0 mm
21:30 9.3 °C 6.2 °C 1013.8 hPa Calm     81 % 0.0 mm
21:33 10.4 °C 6.3 °C 1013.8 hPa SW 1.9 km/h   76 % 0.0 mm
21:38 10.4 °C 6.2 °C 1013.8 hPa WSW 3.7 km/h 3.7 km/h 75 % 0.0 mm
21:40 9.3 °C 6.2 °C 1013.8 hPa Calm     81 % 0.0 mm
21:43 10.4 °C 6.2 °C 1013.8 hPa SW 3.9 km/h 3.9 km/h 75 % 0.0 mm
21:48 10.2 °C 6.2 °C 1013.8 hPa SW 3.9 km/h 3.9 km/h 76 % 0.0 mm
21:50 9.1 °C 5.8 °C 1013.8 hPa WSW 1.6 km/h 3.2 km/h 80 % 0.0 mm
21:53 10.2 °C 6.2 °C 1014.8 hPa WSW 5.6 km/h 5.6 km/h 76 % 0.0 mm
21:58 10.1 °C 6.2 °C 1014.8 hPa Calm   1.4 km/h 77 % 0.0 mm
22:03 10.1 °C 6.2 °C 1014.8 hPa Calm     77 % 0.0 mm
22:10 9.1 °C 6.2 °C 1013.8 hPa Calm     82 % 0.0 mm
22:19 10.1 °C 6.1 °C 1014.8 hPa WSW 3.7 km/h 3.7 km/h 76 % 0.0 mm
22:20 9.1 °C 6.2 °C 1013.8 hPa Calm     82 % 0.0 mm
22:24 10.1 °C 6.2 °C 1014.8 hPa Calm     77 % 0.0 mm
22:29 10.2 °C 6.3 °C 1014.8 hPa Calm     77 % 0.0 mm
22:30 9.1 °C 6.2 °C 1013.8 hPa Calm     82 % 0.0 mm
22:34 10.2 °C 6.3 °C 1014.8 hPa Calm     77 % 0.0 mm
22:39 10.2 °C 6.6 °C 1014.8 hPa Calm     78 % 0.0 mm
22:40 9.1 °C 6.2 °C 1012.8 hPa Calm     82 % 0.0 mm
22:44 10.2 °C 6.6 °C 1014.8 hPa Calm     78 % 0.0 mm
22:49 10.2 °C 6.3 °C 1014.8 hPa NW 1.9 km/h   77 % 0.0 mm
22:50 9.1 °C 6.0 °C 1012.8 hPa NNW 1.6 km/h 1.6 km/h 81 % 0.0 mm
22:54 10.2 °C 6.6 °C 1014.8 hPa Calm     78 % 0.0 mm
22:59 10.2 °C 6.6 °C 1014.8 hPa Calm     78 % 0.0 mm
23:00 9.0 °C 5.9 °C 1012.8 hPa Calm   1.6 km/h 81 % 0.0 mm
23:04 10.3 °C 6.6 °C 1014.8 hPa ENE 4.2 km/h 4.2 km/h 78 % 0.0 mm
23:09 10.3 °C 6.6 °C 1014.8 hPa NE 3.7 km/h 3.7 km/h 78 % 0.0 mm
23:10 8.9 °C 5.6 °C 1012.8 hPa NE 1.6 km/h 1.6 km/h 80 % 0.0 mm
23:14 10.2 °C 6.6 °C 1014.8 hPa East 2.3 km/h 2.3 km/h 78 % 0.0 mm
23:19 10.2 °C 6.6 °C 1014.8 hPa NE 1.9 km/h   78 % 0.0 mm
23:20 8.8 °C 5.7 °C 1012.8 hPa Calm     81 % 0.0 mm
23:24 10.2 °C 6.6 °C 1014.8 hPa NE 1.9 km/h   78 % 0.0 mm
23:29 10.2 °C 6.6 °C 1014.8 hPa NE 3.7 km/h 3.7 km/h 78 % 0.0 mm
23:30 8.8 °C 5.9 °C 1012.8 hPa Calm     82 % 0.0 mm
23:34 10.2 °C 6.3 °C 1014.8 hPa ENE 2.3 km/h   77 % 0.0 mm
23:39 10.2 °C 6.3 °C 1013.8 hPa ENE 1.9 km/h   77 % 0.0 mm
23:40 8.6 °C 5.3 °C 1012.8 hPa West 1.6 km/h 3.2 km/h 80 % 0.0 mm
23:44 10.2 °C 6.3 °C 1013.8 hPa ENE 3.7 km/h 3.7 km/h 77 % 0.0 mm
23:49 10.2 °C 6.3 °C 1013.8 hPa ENE 1.9 km/h   77 % 0.0 mm
23:50 8.5 °C 5.2 °C 1012.8 hPa SW 1.6 km/h 3.2 km/h 80 % 0.0 mm
23:54 10.2 °C 6.3 °C 1013.8 hPa Calm     77 % 0.0 mm
Meteo Sesrovires
Elogis d' Weather Underground - 3.75 mb

Guio original per  Jim McMurry - jmcmurry@mwt.net Adaptat per a la plantilla per  Wim van der Kuil - Leuven-Template.eu

Trobareu la nostra informacio del temps tambe a:

Weather Underground

AWEKAS